sensor_id;sensor_type;location;lat;lon;timestamp;P1;durP1;ratioP1;P2;durP2;ratioP2
83245;SDS011;73140;46.754;17.714;2024-02-26T00:00:27;4.55;;;3.13;;
83245;SDS011;73140;46.754;17.714;2024-02-26T00:02:54;5.97;;;4.28;;
83245;SDS011;73140;46.754;17.714;2024-02-26T00:05:20;7.07;;;4.47;;
83245;SDS011;73140;46.754;17.714;2024-02-26T00:07:46;6.25;;;4.50;;
83245;SDS011;73140;46.754;17.714;2024-02-26T00:10:12;6.88;;;4.35;;
83245;SDS011;73140;46.754;17.714;2024-02-26T00:12:38;5.20;;;3.65;;
83245;SDS011;73140;46.754;17.714;2024-02-26T00:15:06;4.80;;;3.67;;
83245;SDS011;73140;46.754;17.714;2024-02-26T00:17:33;5.53;;;4.57;;
83245;SDS011;73140;46.754;17.714;2024-02-26T00:19:59;5.75;;;4.15;;
83245;SDS011;73140;46.754;17.714;2024-02-26T00:22:26;6.05;;;4.45;;
83245;SDS011;73140;46.754;17.714;2024-02-26T00:24:52;4.88;;;3.78;;
83245;SDS011;73140;46.754;17.714;2024-02-26T00:27:18;5.35;;;4.13;;
83245;SDS011;73140;46.754;17.714;2024-02-26T00:29:44;5.13;;;3.90;;
83245;SDS011;73140;46.754;17.714;2024-02-26T00:32:11;4.13;;;3.35;;
83245;SDS011;73140;46.754;17.714;2024-02-26T00:34:37;3.55;;;2.92;;
83245;SDS011;73140;46.754;17.714;2024-02-26T00:37:03;4.75;;;2.92;;
83245;SDS011;73140;46.754;17.714;2024-02-26T00:39:30;4.43;;;3.30;;
83245;SDS011;73140;46.754;17.714;2024-02-26T00:41:55;4.78;;;3.92;;
83245;SDS011;73140;46.754;17.714;2024-02-26T00:44:22;5.13;;;3.80;;
83245;SDS011;73140;46.754;17.714;2024-02-26T00:46:48;5.93;;;4.40;;
83245;SDS011;73140;46.754;17.714;2024-02-26T00:49:15;5.00;;;3.83;;
83245;SDS011;73140;46.754;17.714;2024-02-26T00:51:41;5.20;;;3.90;;
83245;SDS011;73140;46.754;17.714;2024-02-26T00:54:07;4.30;;;3.45;;
83245;SDS011;73140;46.754;17.714;2024-02-26T00:56:33;3.75;;;2.95;;
83245;SDS011;73140;46.754;17.714;2024-02-26T00:58:59;3.67;;;2.42;;
83245;SDS011;73140;46.754;17.714;2024-02-26T01:01:25;3.28;;;2.20;;
83245;SDS011;73140;46.754;17.714;2024-02-26T01:03:51;2.70;;;2.03;;
83245;SDS011;73140;46.754;17.714;2024-02-26T01:06:19;2.20;;;1.58;;
83245;SDS011;73140;46.754;17.714;2024-02-26T01:08:45;2.80;;;1.55;;
83245;SDS011;73140;46.754;17.714;2024-02-26T01:11:11;2.97;;;1.80;;
83245;SDS011;73140;46.754;17.714;2024-02-26T01:13:37;2.53;;;1.60;;
83245;SDS011;73140;46.754;17.714;2024-02-26T01:16:03;2.60;;;1.90;;
83245;SDS011;73140;46.754;17.714;2024-02-26T01:18:29;2.60;;;1.65;;
83245;SDS011;73140;46.754;17.714;2024-02-26T01:20:55;2.90;;;1.70;;
83245;SDS011;73140;46.754;17.714;2024-02-26T01:23:23;2.28;;;1.58;;
83245;SDS011;73140;46.754;17.714;2024-02-26T01:25:49;1.90;;;1.40;;
83245;SDS011;73140;46.754;17.714;2024-02-26T01:28:15;2.20;;;1.60;;
83245;SDS011;73140;46.754;17.714;2024-02-26T01:30:41;2.25;;;1.50;;
83245;SDS011;73140;46.754;17.714;2024-02-26T01:33:07;2.22;;;1.30;;
83245;SDS011;73140;46.754;17.714;2024-02-26T01:35:33;1.95;;;1.30;;
83245;SDS011;73140;46.754;17.714;2024-02-26T01:37:59;1.83;;;1.38;;
83245;SDS011;73140;46.754;17.714;2024-02-26T01:40:27;2.10;;;1.02;;
83245;SDS011;73140;46.754;17.714;2024-02-26T01:42:53;2.10;;;1.10;;
83245;SDS011;73140;46.754;17.714;2024-02-26T01:45:19;1.80;;;1.17;;
83245;SDS011;73140;46.754;17.714;2024-02-26T01:47:50;1.95;;;1.00;;
83245;SDS011;73140;46.754;17.714;2024-02-26T01:50:17;1.40;;;0.90;;
83245;SDS011;73140;46.754;17.714;2024-02-26T01:52:43;1.70;;;1.30;;
83245;SDS011;73140;46.754;17.714;2024-02-26T01:55:10;1.60;;;1.00;;
83245;SDS011;73140;46.754;17.714;2024-02-26T01:57:38;1.70;;;1.05;;
83245;SDS011;73140;46.754;17.714;2024-02-26T02:00:04;1.60;;;1.00;;
83245;SDS011;73140;46.754;17.714;2024-02-26T02:02:33;1.67;;;1.00;;
83245;SDS011;73140;46.754;17.714;2024-02-26T02:05:00;1.90;;;1.25;;
83245;SDS011;73140;46.754;17.714;2024-02-26T02:07:26;2.00;;;0.90;;
83245;SDS011;73140;46.754;17.714;2024-02-26T02:09:54;2.58;;;1.00;;
83245;SDS011;73140;46.754;17.714;2024-02-26T02:12:20;2.03;;;1.08;;
83245;SDS011;73140;46.754;17.714;2024-02-26T02:14:48;1.55;;;1.00;;
83245;SDS011;73140;46.754;17.714;2024-02-26T02:17:14;1.95;;;1.17;;
83245;SDS011;73140;46.754;17.714;2024-02-26T02:19:40;1.70;;;1.15;;
83245;SDS011;73140;46.754;17.714;2024-02-26T02:22:08;2.00;;;1.15;;
83245;SDS011;73140;46.754;17.714;2024-02-26T02:24:34;1.45;;;1.00;;
83245;SDS011;73140;46.754;17.714;2024-02-26T02:27:00;1.55;;;1.08;;
83245;SDS011;73140;46.754;17.714;2024-02-26T02:29:26;1.70;;;1.30;;
83245;SDS011;73140;46.754;17.714;2024-02-26T02:31:52;1.50;;;1.00;;
83245;SDS011;73140;46.754;17.714;2024-02-26T02:34:19;1.80;;;1.20;;
83245;SDS011;73140;46.754;17.714;2024-02-26T02:36:50;1.92;;;1.20;;
83245;SDS011;73140;46.754;17.714;2024-02-26T02:39:19;1.40;;;1.02;;
83245;SDS011;73140;46.754;17.714;2024-02-26T02:41:45;2.28;;;1.15;;
83245;SDS011;73140;46.754;17.714;2024-02-26T02:44:12;1.70;;;1.08;;
83245;SDS011;73140;46.754;17.714;2024-02-26T02:46:38;1.30;;;0.90;;
83245;SDS011;73140;46.754;17.714;2024-02-26T02:49:07;2.42;;;1.30;;
83245;SDS011;73140;46.754;17.714;2024-02-26T02:51:34;2.00;;;1.42;;
83245;SDS011;73140;46.754;17.714;2024-02-26T02:54:00;1.20;;;0.85;;
83245;SDS011;73140;46.754;17.714;2024-02-26T02:56:27;1.35;;;0.80;;
83245;SDS011;73140;46.754;17.714;2024-02-26T02:58:53;1.83;;;1.10;;
83245;SDS011;73140;46.754;17.714;2024-02-26T03:01:19;1.27;;;0.90;;
83245;SDS011;73140;46.754;17.714;2024-02-26T03:03:45;1.65;;;1.00;;
83245;SDS011;73140;46.754;17.714;2024-02-26T03:06:11;1.90;;;1.10;;
83245;SDS011;73140;46.754;17.714;2024-02-26T03:08:37;1.20;;;0.80;;
83245;SDS011;73140;46.754;17.714;2024-02-26T03:11:04;1.50;;;0.85;;
83245;SDS011;73140;46.754;17.714;2024-02-26T03:13:32;1.38;;;0.80;;
83245;SDS011;73140;46.754;17.714;2024-02-26T03:16:03;1.63;;;0.90;;
83245;SDS011;73140;46.754;17.714;2024-02-26T03:18:30;1.63;;;0.95;;
83245;SDS011;73140;46.754;17.714;2024-02-26T03:20:56;1.98;;;1.00;;
83245;SDS011;73140;46.754;17.714;2024-02-26T03:23:22;2.05;;;0.80;;
83245;SDS011;73140;46.754;17.714;2024-02-26T03:25:48;1.30;;;0.80;;
83245;SDS011;73140;46.754;17.714;2024-02-26T03:28:13;1.70;;;0.80;;
83245;SDS011;73140;46.754;17.714;2024-02-26T03:30:41;1.08;;;0.60;;
83245;SDS011;73140;46.754;17.714;2024-02-26T03:33:07;2.03;;;0.80;;
83245;SDS011;73140;46.754;17.714;2024-02-26T03:35:33;1.63;;;0.90;;
83245;SDS011;73140;46.754;17.714;2024-02-26T03:37:59;1.23;;;0.70;;
83245;SDS011;73140;46.754;17.714;2024-02-26T03:40:25;1.33;;;0.70;;
83245;SDS011;73140;46.754;17.714;2024-02-26T03:42:51;1.60;;;0.80;;
83245;SDS011;73140;46.754;17.714;2024-02-26T03:45:19;2.20;;;1.45;;
83245;SDS011;73140;46.754;17.714;2024-02-26T03:47:46;3.63;;;2.50;;
83245;SDS011;73140;46.754;17.714;2024-02-26T03:50:12;4.03;;;2.85;;
83245;SDS011;73140;46.754;17.714;2024-02-26T03:52:38;4.15;;;3.33;;
83245;SDS011;73140;46.754;17.714;2024-02-26T03:55:04;4.10;;;3.15;;
83245;SDS011;73140;46.754;17.714;2024-02-26T03:57:31;4.68;;;3.38;;
83245;SDS011;73140;46.754;17.714;2024-02-26T03:59:56;4.13;;;3.10;;
83245;SDS011;73140;46.754;17.714;2024-02-26T04:02:22;3.70;;;2.83;;
83245;SDS011;73140;46.754;17.714;2024-02-26T04:04:50;3.72;;;2.85;;
83245;SDS011;73140;46.754;17.714;2024-02-26T04:07:16;3.22;;;2.40;;
83245;SDS011;73140;46.754;17.714;2024-02-26T04:09:42;2.65;;;2.08;;
83245;SDS011;73140;46.754;17.714;2024-02-26T04:12:08;1.77;;;1.20;;
83245;SDS011;73140;46.754;17.714;2024-02-26T04:14:35;1.80;;;1.10;;
83245;SDS011;73140;46.754;17.714;2024-02-26T04:17:01;1.65;;;0.85;;
83245;SDS011;73140;46.754;17.714;2024-02-26T04:19:27;1.65;;;0.90;;
83245;SDS011;73140;46.754;17.714;2024-02-26T04:21:55;1.30;;;0.85;;
83245;SDS011;73140;46.754;17.714;2024-02-26T04:24:21;1.30;;;0.80;;
83245;SDS011;73140;46.754;17.714;2024-02-26T04:26:47;1.20;;;0.90;;
83245;SDS011;73140;46.754;17.714;2024-02-26T04:29:15;1.83;;;0.70;;
83245;SDS011;73140;46.754;17.714;2024-02-26T04:31:41;1.30;;;0.70;;
83245;SDS011;73140;46.754;17.714;2024-02-26T04:34:08;1.20;;;0.73;;
83245;SDS011;73140;46.754;17.714;2024-02-26T04:36:34;1.17;;;0.73;;
83245;SDS011;73140;46.754;17.714;2024-02-26T04:39:02;1.42;;;0.90;;
83245;SDS011;73140;46.754;17.714;2024-02-26T04:41:28;1.77;;;0.90;;
83245;SDS011;73140;46.754;17.714;2024-02-26T04:43:54;1.77;;;1.05;;
83245;SDS011;73140;46.754;17.714;2024-02-26T04:46:20;2.40;;;1.92;;
83245;SDS011;73140;46.754;17.714;2024-02-26T04:48:47;3.10;;;1.90;;
83245;SDS011;73140;46.754;17.714;2024-02-26T04:51:13;2.47;;;1.90;;
83245;SDS011;73140;46.754;17.714;2024-02-26T04:53:39;3.05;;;2.00;;
83245;SDS011;73140;46.754;17.714;2024-02-26T04:56:06;3.28;;;2.25;;
83245;SDS011;73140;46.754;17.714;2024-02-26T04:58:32;3.78;;;2.40;;
83245;SDS011;73140;46.754;17.714;2024-02-26T05:00:58;3.47;;;2.22;;
83245;SDS011;73140;46.754;17.714;2024-02-26T05:03:24;3.08;;;2.47;;
83245;SDS011;73140;46.754;17.714;2024-02-26T05:05:50;3.42;;;2.67;;
83245;SDS011;73140;46.754;17.714;2024-02-26T05:08:16;3.42;;;2.67;;
83245;SDS011;73140;46.754;17.714;2024-02-26T05:10:42;3.80;;;2.50;;
83245;SDS011;73140;46.754;17.714;2024-02-26T05:13:12;3.45;;;2.45;;
83245;SDS011;73140;46.754;17.714;2024-02-26T05:15:40;3.03;;;2.25;;
83245;SDS011;73140;46.754;17.714;2024-02-26T05:18:07;3.05;;;2.22;;
83245;SDS011;73140;46.754;17.714;2024-02-26T05:20:33;2.75;;;2.10;;
83245;SDS011;73140;46.754;17.714;2024-02-26T05:23:01;2.45;;;1.90;;
83245;SDS011;73140;46.754;17.714;2024-02-26T05:25:27;3.33;;;2.15;;
83245;SDS011;73140;46.754;17.714;2024-02-26T05:27:53;2.58;;;1.95;;
83245;SDS011;73140;46.754;17.714;2024-02-26T05:30:20;2.55;;;1.70;;
83245;SDS011;73140;46.754;17.714;2024-02-26T05:32:46;2.42;;;1.50;;
83245;SDS011;73140;46.754;17.714;2024-02-26T05:35:12;1.98;;;1.33;;
83245;SDS011;73140;46.754;17.714;2024-02-26T05:37:39;2.45;;;1.40;;
83245;SDS011;73140;46.754;17.714;2024-02-26T05:40:05;2.42;;;1.83;;
83245;SDS011;73140;46.754;17.714;2024-02-26T05:42:32;3.50;;;2.05;;
83245;SDS011;73140;46.754;17.714;2024-02-26T05:44:58;2.47;;;1.65;;
83245;SDS011;73140;46.754;17.714;2024-02-26T05:47:26;2.35;;;1.63;;
83245;SDS011;73140;46.754;17.714;2024-02-26T05:49:52;2.95;;;2.08;;
83245;SDS011;73140;46.754;17.714;2024-02-26T05:52:18;3.55;;;2.20;;
83245;SDS011;73140;46.754;17.714;2024-02-26T05:54:44;3.55;;;2.67;;
83245;SDS011;73140;46.754;17.714;2024-02-26T05:57:10;2.83;;;2.08;;
83245;SDS011;73140;46.754;17.714;2024-02-26T05:59:36;3.08;;;2.08;;
83245;SDS011;73140;46.754;17.714;2024-02-26T06:02:02;3.05;;;2.22;;
83245;SDS011;73140;46.754;17.714;2024-02-26T06:04:30;2.70;;;1.77;;
83245;SDS011;73140;46.754;17.714;2024-02-26T06:06:56;3.33;;;2.17;;
83245;SDS011;73140;46.754;17.714;2024-02-26T06:09:22;2.90;;;2.00;;
83245;SDS011;73140;46.754;17.714;2024-02-26T06:11:48;3.10;;;2.10;;
83245;SDS011;73140;46.754;17.714;2024-02-26T06:14:14;2.95;;;2.03;;
83245;SDS011;73140;46.754;17.714;2024-02-26T06:16:43;2.42;;;1.70;;
83245;SDS011;73140;46.754;17.714;2024-02-26T06:19:09;4.63;;;2.60;;
83245;SDS011;73140;46.754;17.714;2024-02-26T06:21:36;4.20;;;2.83;;
83245;SDS011;73140;46.754;17.714;2024-02-26T06:24:02;4.05;;;3.03;;
83245;SDS011;73140;46.754;17.714;2024-02-26T06:26:29;4.03;;;3.13;;
83245;SDS011;73140;46.754;17.714;2024-02-26T06:28:55;4.07;;;2.78;;
83245;SDS011;73140;46.754;17.714;2024-02-26T06:31:21;6.03;;;3.30;;
83245;SDS011;73140;46.754;17.714;2024-02-26T06:33:48;4.20;;;3.10;;
83245;SDS011;73140;46.754;17.714;2024-02-26T06:36:15;4.05;;;2.88;;
83245;SDS011;73140;46.754;17.714;2024-02-26T06:38:42;4.13;;;3.10;;
83245;SDS011;73140;46.754;17.714;2024-02-26T06:41:08;3.75;;;2.90;;
83245;SDS011;73140;46.754;17.714;2024-02-26T06:43:35;4.65;;;3.10;;
83245;SDS011;73140;46.754;17.714;2024-02-26T06:46:00;4.05;;;3.03;;
83245;SDS011;73140;46.754;17.714;2024-02-26T06:48:26;1.90;;;1.08;;
83245;SDS011;73140;46.754;17.714;2024-02-26T06:50:53;2.15;;;1.20;;
83245;SDS011;73140;46.754;17.714;2024-02-26T06:53:19;1.67;;;1.10;;
83245;SDS011;73140;46.754;17.714;2024-02-26T06:55:46;1.70;;;1.10;;
83245;SDS011;73140;46.754;17.714;2024-02-26T06:58:13;1.98;;;1.10;;
83245;SDS011;73140;46.754;17.714;2024-02-26T07:00:39;1.80;;;0.80;;
83245;SDS011;73140;46.754;17.714;2024-02-26T07:03:05;1.45;;;0.95;;
83245;SDS011;73140;46.754;17.714;2024-02-26T07:05:31;1.25;;;0.82;;
83245;SDS011;73140;46.754;17.714;2024-02-26T07:07:57;1.35;;;0.77;;
83245;SDS011;73140;46.754;17.714;2024-02-26T07:10:23;1.05;;;0.70;;
83245;SDS011;73140;46.754;17.714;2024-02-26T07:12:51;1.00;;;0.63;;
83245;SDS011;73140;46.754;17.714;2024-02-26T07:15:17;1.20;;;0.80;;
83245;SDS011;73140;46.754;17.714;2024-02-26T07:17:44;2.38;;;0.80;;
83245;SDS011;73140;46.754;17.714;2024-02-26T07:20:12;1.17;;;0.73;;
83245;SDS011;73140;46.754;17.714;2024-02-26T07:22:40;1.55;;;0.85;;
83245;SDS011;73140;46.754;17.714;2024-02-26T07:25:07;1.30;;;0.80;;
83245;SDS011;73140;46.754;17.714;2024-02-26T07:27:37;1.40;;;0.70;;
83245;SDS011;73140;46.754;17.714;2024-02-26T07:30:05;1.20;;;0.60;;
83245;SDS011;73140;46.754;17.714;2024-02-26T07:32:33;1.20;;;0.80;;
83245;SDS011;73140;46.754;17.714;2024-02-26T07:34:59;1.50;;;1.00;;
83245;SDS011;73140;46.754;17.714;2024-02-26T07:37:25;2.10;;;1.27;;
83245;SDS011;73140;46.754;17.714;2024-02-26T07:39:51;1.70;;;1.15;;
83245;SDS011;73140;46.754;17.714;2024-02-26T07:42:17;2.17;;;1.02;;
83245;SDS011;73140;46.754;17.714;2024-02-26T07:44:43;1.85;;;1.17;;
83245;SDS011;73140;46.754;17.714;2024-02-26T07:47:10;1.67;;;1.02;;
83245;SDS011;73140;46.754;17.714;2024-02-26T07:49:36;1.48;;;1.08;;
83245;SDS011;73140;46.754;17.714;2024-02-26T07:52:03;1.50;;;0.98;;
83245;SDS011;73140;46.754;17.714;2024-02-26T07:54:29;2.10;;;1.20;;
83245;SDS011;73140;46.754;17.714;2024-02-26T07:56:55;1.67;;;1.08;;
83245;SDS011;73140;46.754;17.714;2024-02-26T07:59:21;1.33;;;1.02;;
83245;SDS011;73140;46.754;17.714;2024-02-26T08:01:49;1.52;;;1.05;;
83245;SDS011;73140;46.754;17.714;2024-02-26T08:04:17;1.65;;;0.90;;
83245;SDS011;73140;46.754;17.714;2024-02-26T08:06:43;1.65;;;1.10;;
83245;SDS011;73140;46.754;17.714;2024-02-26T08:09:09;1.50;;;1.00;;
83245;SDS011;73140;46.754;17.714;2024-02-26T08:11:35;1.65;;;1.02;;
83245;SDS011;73140;46.754;17.714;2024-02-26T08:14:01;1.50;;;1.00;;
83245;SDS011;73140;46.754;17.714;2024-02-26T08:16:28;1.70;;;1.20;;
83245;SDS011;73140;46.754;17.714;2024-02-26T08:18:54;1.50;;;0.93;;
83245;SDS011;73140;46.754;17.714;2024-02-26T08:21:22;1.58;;;1.17;;
83245;SDS011;73140;46.754;17.714;2024-02-26T08:23:48;1.80;;;1.30;;
83245;SDS011;73140;46.754;17.714;2024-02-26T08:26:14;1.70;;;1.10;;
83245;SDS011;73140;46.754;17.714;2024-02-26T08:28:40;1.88;;;1.23;;
83245;SDS011;73140;46.754;17.714;2024-02-26T08:31:06;1.90;;;1.15;;
83245;SDS011;73140;46.754;17.714;2024-02-26T08:33:33;3.25;;;1.60;;
83245;SDS011;73140;46.754;17.714;2024-02-26T08:36:03;2.20;;;1.65;;
83245;SDS011;73140;46.754;17.714;2024-02-26T08:38:31;1.92;;;1.30;;
83245;SDS011;73140;46.754;17.714;2024-02-26T08:40:57;1.88;;;1.25;;
83245;SDS011;73140;46.754;17.714;2024-02-26T08:43:23;1.80;;;1.30;;
83245;SDS011;73140;46.754;17.714;2024-02-26T08:45:49;2.38;;;1.45;;
83245;SDS011;73140;46.754;17.714;2024-02-26T08:48:15;1.67;;;1.20;;
83245;SDS011;73140;46.754;17.714;2024-02-26T08:50:41;1.70;;;1.25;;
83245;SDS011;73140;46.754;17.714;2024-02-26T08:53:07;1.73;;;1.10;;
83245;SDS011;73140;46.754;17.714;2024-02-26T08:55:34;2.33;;;1.50;;
83245;SDS011;73140;46.754;17.714;2024-02-26T08:58:00;1.55;;;1.00;;
83245;SDS011;73140;46.754;17.714;2024-02-26T09:00:26;2.10;;;1.10;;
83245;SDS011;73140;46.754;17.714;2024-02-26T09:02:52;1.50;;;0.90;;
83245;SDS011;73140;46.754;17.714;2024-02-26T09:05:18;1.75;;;0.90;;
83245;SDS011;73140;46.754;17.714;2024-02-26T09:07:44;2.35;;;0.70;;
83245;SDS011;73140;46.754;17.714;2024-02-26T09:10:12;1.60;;;0.73;;
83245;SDS011;73140;46.754;17.714;2024-02-26T09:12:39;1.67;;;1.10;;
83245;SDS011;73140;46.754;17.714;2024-02-26T09:15:06;1.65;;;1.02;;
83245;SDS011;73140;46.754;17.714;2024-02-26T09:17:32;0.98;;;0.70;;
83245;SDS011;73140;46.754;17.714;2024-02-26T09:19:58;2.60;;;1.23;;
83245;SDS011;73140;46.754;17.714;2024-02-26T09:22:25;1.90;;;1.10;;
83245;SDS011;73140;46.754;17.714;2024-02-26T09:24:51;1.30;;;0.63;;
83245;SDS011;73140;46.754;17.714;2024-02-26T09:27:18;0.98;;;0.60;;
83245;SDS011;73140;46.754;17.714;2024-02-26T09:29:46;0.95;;;0.60;;
83245;SDS011;73140;46.754;17.714;2024-02-26T09:32:12;1.75;;;0.90;;
83245;SDS011;73140;46.754;17.714;2024-02-26T09:34:39;1.10;;;0.80;;
83245;SDS011;73140;46.754;17.714;2024-02-26T09:37:05;1.25;;;0.77;;
83245;SDS011;73140;46.754;17.714;2024-02-26T09:39:31;1.40;;;0.88;;
83245;SDS011;73140;46.754;17.714;2024-02-26T09:41:57;1.42;;;1.00;;
83245;SDS011;73140;46.754;17.714;2024-02-26T09:44:25;1.08;;;0.90;;
83245;SDS011;73140;46.754;17.714;2024-02-26T09:46:57;2.10;;;1.65;;
83245;SDS011;73140;46.754;17.714;2024-02-26T09:49:24;1.15;;;0.88;;
83245;SDS011;73140;46.754;17.714;2024-02-26T09:51:50;1.95;;;1.17;;
83245;SDS011;73140;46.754;17.714;2024-02-26T09:54:19;1.40;;;1.00;;
83245;SDS011;73140;46.754;17.714;2024-02-26T09:56:45;2.35;;;1.20;;
83245;SDS011;73140;46.754;17.714;2024-02-26T09:59:16;1.48;;;0.95;;
83245;SDS011;73140;46.754;17.714;2024-02-26T10:01:43;1.42;;;0.77;;
83245;SDS011;73140;46.754;17.714;2024-02-26T10:04:13;1.20;;;0.75;;
83245;SDS011;73140;46.754;17.714;2024-02-26T10:06:40;1.67;;;0.98;;
83245;SDS011;73140;46.754;17.714;2024-02-26T10:09:09;1.65;;;0.90;;
83245;SDS011;73140;46.754;17.714;2024-02-26T10:11:36;1.70;;;0.98;;
83245;SDS011;73140;46.754;17.714;2024-02-26T10:14:04;1.60;;;1.00;;
83245;SDS011;73140;46.754;17.714;2024-02-26T10:16:30;2.20;;;1.02;;
83245;SDS011;73140;46.754;17.714;2024-02-26T10:18:56;1.90;;;0.95;;
83245;SDS011;73140;46.754;17.714;2024-02-26T10:21:23;1.80;;;1.00;;
83245;SDS011;73140;46.754;17.714;2024-02-26T10:23:49;1.33;;;0.80;;
83245;SDS011;73140;46.754;17.714;2024-02-26T10:26:19;1.50;;;0.80;;
83245;SDS011;73140;46.754;17.714;2024-02-26T10:28:45;0.90;;;0.50;;
83245;SDS011;73140;46.754;17.714;2024-02-26T10:31:13;1.30;;;0.70;;
83245;SDS011;73140;46.754;17.714;2024-02-26T10:33:40;1.98;;;0.80;;
83245;SDS011;73140;46.754;17.714;2024-02-26T10:36:07;1.13;;;0.70;;
83245;SDS011;73140;46.754;17.714;2024-02-26T10:38:35;1.20;;;0.68;;
83245;SDS011;73140;46.754;17.714;2024-02-26T10:41:02;1.63;;;0.68;;
83245;SDS011;73140;46.754;17.714;2024-02-26T10:43:28;2.42;;;0.90;;
83245;SDS011;73140;46.754;17.714;2024-02-26T10:45:55;1.42;;;0.68;;
83245;SDS011;73140;46.754;17.714;2024-02-26T10:48:21;0.88;;;0.57;;
83245;SDS011;73140;46.754;17.714;2024-02-26T10:50:47;0.90;;;0.60;;
83245;SDS011;73140;46.754;17.714;2024-02-26T10:53:17;1.23;;;0.60;;
83245;SDS011;73140;46.754;17.714;2024-02-26T10:55:48;1.00;;;0.50;;
83245;SDS011;73140;46.754;17.714;2024-02-26T10:58:15;0.93;;;0.50;;
83245;SDS011;73140;46.754;17.714;2024-02-26T11:00:42;1.23;;;0.60;;
83245;SDS011;73140;46.754;17.714;2024-02-26T11:03:09;1.20;;;0.52;;
83245;SDS011;73140;46.754;17.714;2024-02-26T11:05:36;1.40;;;0.55;;
83245;SDS011;73140;46.754;17.714;2024-02-26T11:08:07;0.80;;;0.50;;
83245;SDS011;73140;46.754;17.714;2024-02-26T11:10:35;1.33;;;0.50;;
83245;SDS011;73140;46.754;17.714;2024-02-26T11:13:04;1.85;;;0.50;;
83245;SDS011;73140;46.754;17.714;2024-02-26T11:15:32;0.75;;;0.50;;
83245;SDS011;73140;46.754;17.714;2024-02-26T11:17:59;1.05;;;0.57;;
83245;SDS011;73140;46.754;17.714;2024-02-26T11:20:27;1.33;;;0.47;;
83245;SDS011;73140;46.754;17.714;2024-02-26T11:22:55;1.98;;;0.50;;
83245;SDS011;73140;46.754;17.714;2024-02-26T11:25:21;0.85;;;0.45;;
83245;SDS011;73140;46.754;17.714;2024-02-26T11:27:50;0.22;;;0.13;;
83245;SDS011;73140;46.754;17.714;2024-02-26T11:30:21;1.13;;;0.40;;
83245;SDS011;73140;46.754;17.714;2024-02-26T11:32:49;0.90;;;0.50;;
83245;SDS011;73140;46.754;17.714;2024-02-26T11:35:17;1.38;;;0.60;;
83245;SDS011;73140;46.754;17.714;2024-02-26T11:37:51;1.63;;;1.02;;
83245;SDS011;73140;46.754;17.714;2024-02-26T11:40:18;6.50;;;4.18;;
83245;SDS011;73140;46.754;17.714;2024-02-26T11:42:44;2.85;;;1.70;;
83245;SDS011;73140;46.754;17.714;2024-02-26T11:48:13;1.10;;;0.63;;
83245;SDS011;73140;46.754;17.714;2024-02-26T11:50:41;1.27;;;0.45;;
83245;SDS011;73140;46.754;17.714;2024-02-26T11:53:20;0.88;;;0.40;;
83245;SDS011;73140;46.754;17.714;2024-02-26T11:55:50;2.13;;;1.42;;
83245;SDS011;73140;46.754;17.714;2024-02-26T11:58:53;3.33;;;2.10;;
83245;SDS011;73140;46.754;17.714;2024-02-26T12:04:13;1.40;;;0.93;;
83245;SDS011;73140;46.754;17.714;2024-02-26T12:06:44;1.27;;;0.65;;
83245;SDS011;73140;46.754;17.714;2024-02-26T12:12:04;0.85;;;0.55;;
83245;SDS011;73140;46.754;17.714;2024-02-26T12:14:36;1.30;;;0.60;;
83245;SDS011;73140;46.754;17.714;2024-02-26T12:17:05;1.13;;;0.50;;
83245;SDS011;73140;46.754;17.714;2024-02-26T12:19:32;0.80;;;0.50;;
83245;SDS011;73140;46.754;17.714;2024-02-26T12:22:00;1.42;;;0.50;;
83245;SDS011;73140;46.754;17.714;2024-02-26T12:24:26;0.90;;;0.40;;
83245;SDS011;73140;46.754;17.714;2024-02-26T12:26:52;1.27;;;0.63;;
83245;SDS011;73140;46.754;17.714;2024-02-26T12:29:18;1.70;;;0.60;;
83245;SDS011;73140;46.754;17.714;2024-02-26T12:31:44;0.90;;;0.50;;
83245;SDS011;73140;46.754;17.714;2024-02-26T12:34:12;0.63;;;0.35;;
83245;SDS011;73140;46.754;17.714;2024-02-26T12:36:39;1.20;;;0.43;;
83245;SDS011;73140;46.754;17.714;2024-02-26T12:39:05;0.85;;;0.47;;
83245;SDS011;73140;46.754;17.714;2024-02-26T12:41:32;0.80;;;0.40;;
83245;SDS011;73140;46.754;17.714;2024-02-26T12:43:59;0.70;;;0.43;;
83245;SDS011;73140;46.754;17.714;2024-02-26T12:46:25;1.00;;;0.50;;
83245;SDS011;73140;46.754;17.714;2024-02-26T12:48:51;0.70;;;0.40;;
83245;SDS011;73140;46.754;17.714;2024-02-26T12:51:18;0.60;;;0.30;;
83245;SDS011;73140;46.754;17.714;2024-02-26T12:53:45;0.93;;;0.40;;
83245;SDS011;73140;46.754;17.714;2024-02-26T12:56:11;0.73;;;0.40;;
83245;SDS011;73140;46.754;17.714;2024-02-26T12:58:38;0.80;;;0.50;;
83245;SDS011;73140;46.754;17.714;2024-02-26T13:01:05;0.95;;;0.40;;
83245;SDS011;73140;46.754;17.714;2024-02-26T13:03:31;2.25;;;0.57;;
83245;SDS011;73140;46.754;17.714;2024-02-26T13:06:00;0.70;;;0.30;;
83245;SDS011;73140;46.754;17.714;2024-02-26T13:08:28;1.05;;;0.50;;
83245;SDS011;73140;46.754;17.714;2024-02-26T13:10:54;1.13;;;0.50;;
83245;SDS011;73140;46.754;17.714;2024-02-26T13:13:20;0.73;;;0.50;;
83245;SDS011;73140;46.754;17.714;2024-02-26T13:15:46;0.90;;;0.47;;
83245;SDS011;73140;46.754;17.714;2024-02-26T13:18:14;1.02;;;0.52;;
83245;SDS011;73140;46.754;17.714;2024-02-26T13:20:40;0.80;;;0.38;;
83245;SDS011;73140;46.754;17.714;2024-02-26T13:23:07;0.95;;;0.47;;
83245;SDS011;73140;46.754;17.714;2024-02-26T13:25:37;0.50;;;0.30;;
83245;SDS011;73140;46.754;17.714;2024-02-26T13:28:07;0.38;;;0.20;;
83245;SDS011;73140;46.754;17.714;2024-02-26T13:30:34;0.70;;;0.30;;
83245;SDS011;73140;46.754;17.714;2024-02-26T13:33:06;1.02;;;0.40;;
83245;SDS011;73140;46.754;17.714;2024-02-26T13:35:36;1.00;;;0.30;;
83245;SDS011;73140;46.754;17.714;2024-02-26T13:38:02;0.55;;;0.32;;
83245;SDS011;73140;46.754;17.714;2024-02-26T13:40:28;1.13;;;0.50;;
83245;SDS011;73140;46.754;17.714;2024-02-26T13:42:56;0.70;;;0.50;;
83245;SDS011;73140;46.754;17.714;2024-02-26T13:45:22;0.40;;;0.20;;
83245;SDS011;73140;46.754;17.714;2024-02-26T13:47:48;0.80;;;0.30;;
83245;SDS011;73140;46.754;17.714;2024-02-26T13:50:14;0.90;;;0.30;;
83245;SDS011;73140;46.754;17.714;2024-02-26T13:52:40;0.32;;;0.22;;
83245;SDS011;73140;46.754;17.714;2024-02-26T13:55:07;0.20;;;0.20;;
83245;SDS011;73140;46.754;17.714;2024-02-26T13:57:33;1.08;;;0.60;;
83245;SDS011;73140;46.754;17.714;2024-02-26T14:00:01;2.80;;;0.80;;
83245;SDS011;73140;46.754;17.714;2024-02-26T14:02:37;2.35;;;0.63;;
83245;SDS011;73140;46.754;17.714;2024-02-26T14:05:03;0.88;;;0.50;;
83245;SDS011;73140;46.754;17.714;2024-02-26T14:07:29;0.50;;;0.22;;
83245;SDS011;73140;46.754;17.714;2024-02-26T14:09:57;0.80;;;0.32;;
83245;SDS011;73140;46.754;17.714;2024-02-26T14:12:23;0.70;;;0.30;;
83245;SDS011;73140;46.754;17.714;2024-02-26T14:14:49;1.05;;;0.35;;
83245;SDS011;73140;46.754;17.714;2024-02-26T14:17:19;0.45;;;0.22;;
83245;SDS011;73140;46.754;17.714;2024-02-26T14:19:45;0.90;;;0.30;;
83245;SDS011;73140;46.754;17.714;2024-02-26T14:22:13;0.77;;;0.30;;
83245;SDS011;73140;46.754;17.714;2024-02-26T14:24:41;0.90;;;0.30;;
83245;SDS011;73140;46.754;17.714;2024-02-26T14:27:09;1.05;;;0.30;;
83245;SDS011;73140;46.754;17.714;2024-02-26T14:29:39;0.52;;;0.30;;
83245;SDS011;73140;46.754;17.714;2024-02-26T14:32:07;0.52;;;0.20;;
83245;SDS011;73140;46.754;17.714;2024-02-26T14:34:34;0.68;;;0.35;;
83245;SDS011;73140;46.754;17.714;2024-02-26T14:37:00;0.30;;;0.20;;
83245;SDS011;73140;46.754;17.714;2024-02-26T14:39:26;0.52;;;0.28;;